Time;durP1;ratioP1;P1;durP2;ratioP2;P2;SDS_P1;SDS_P2;PMS_P1;PMS_P2;Temp;Humidity;BMP_temperature;BMP_pressure;BME280_temperature;BME280_humidity;BME280_pressure;Samples;Min_cycle;Max_cycle;Signal;HPM_P1;HPM_P2
2022/01/07 00:02:17;;;;;;;16.27;8.10;;;2.50;99.90;;;;;;5016152;28;20263;-89
2022/01/07 00:04:43;;;;;;;19.35;8.82;;;2.00;99.90;;;;;;5007772;28;20215;-89
2022/01/07 00:07:11;;;;;;;15.15;7.80;;;2.00;99.90;;;;;;5009681;28;20212;-89
2022/01/07 00:09:37;;;;;;;21.30;8.18;;;2.20;99.90;;;;;;5002632;28;20216;-88
2022/01/07 00:33:05;;;;;;;11.00;6.90;;;2.10;99.90;;;;;;4951945;28;20298;-89
2022/01/07 00:39:58;;;;;;;;;;;;;;;;;;;;;
2022/01/07 00:43:37;;;;;;;17.17;7.07;;;1.60;99.90;;;;;;4973027;28;20237;-90
2022/01/07 01:14:40;;;;;;;11.13;6.85;;;1.60;99.90;;;;;;4873103;29;20283;-89
2022/01/07 01:18:03;;;;;;;15.70;6.72;;;1.80;99.90;;;;;;4887545;28;20240;-89
2022/01/07 01:44:38;;;;;;;10.95;6.07;;;1.30;99.90;;;;;;4931799;29;20238;-90
2022/01/07 01:50:50;;;;;;;14.38;6.80;;;1.50;99.90;;;;;;4939654;29;20210;-90
2022/01/07 01:59:53;;;;;;;;;;;;;;;;;;;;;
2022/01/07 02:03:03;;;;;;;17.05;8.23;;;1.60;99.90;;;;;;4952138;29;20242;-90
2022/01/07 02:09:25;;;;;;;13.15;6.35;;;1.60;99.90;;;;;;4935890;29;20209;-89
2022/01/07 02:12:22;;;;;;;13.45;7.20;;;1.20;99.90;;;;;;4942570;29;20254;-89
2022/01/07 02:15:29;;;;;;;13.85;6.28;;;1.60;99.90;;;;;;4831459;29;20281;-89
2022/01/07 02:25:20;;;;;;;10.88;7.25;;;1.50;99.90;;;;;;4894012;29;20207;-90
2022/01/07 02:31:49;;;;;;;12.48;7.97;;;1.90;99.90;;;;;;4881802;29;20209;-90
2022/01/07 02:39:05;;;;;;;;;;;;;;;;;;;;;
2022/01/07 02:42:20;;;;;;;8.93;5.85;;;1.60;99.90;;;;;;4851221;29;20285;-89
2022/01/07 02:51:52;;;;;;;12.05;6.70;;;1.80;99.90;;;;;;4933715;28;20201;-89
2022/01/07 02:55:22;;;;;;;11.23;7.13;;;1.70;99.90;;;;;;4983488;28;20212;-89
2022/01/07 02:58:24;;;;;;;11.68;6.70;;;1.80;99.90;;;;;;4879568;28;20208;-89
2022/01/07 03:10:29;;;;;;;11.27;6.88;;;1.90;99.90;;;;;;4981625;28;20208;-89
2022/01/07 03:13:19;;;;;;;14.88;7.13;;;1.80;99.90;;;;;;4961428;29;20240;-89
2022/01/07 03:19:11;;;;;;;11.90;6.72;;;1.90;99.90;;;;;;4960775;29;20225;-89
2022/01/07 03:25:00;;;;;;;13.50;7.05;;;1.50;99.90;;;;;;4957031;29;20304;-89
2022/01/07 03:38:20;;;;;;;13.52;5.50;;;1.80;99.90;;;;;;4974772;28;20773;-89
2022/01/07 03:47:29;;;;;;;12.40;6.18;;;1.80;99.90;;;;;;4957746;28;20205;-89
2022/01/07 03:50:26;;;;;;;9.57;5.60;;;1.80;99.90;;;;;;4966117;28;20634;-89
2022/01/07 03:57:09;;;;;;;9.07;6.25;;;1.80;99.90;;;;;;4961564;28;20236;-89
2022/01/07 04:10:07;;;;;;;10.88;6.25;;;2.00;99.90;;;;;;4955369;28;20224;-89
2022/01/07 04:33:44;;;;;;;13.13;5.85;;;1.40;99.90;;;;;;4734426;29;20243;-90
2022/01/07 04:50:23;;;;;;;10.63;6.30;;;1.30;99.90;;;;;;4964335;28;20317;-89
2022/01/07 05:26:15;;;;;;;16.65;7.38;;;1.60;99.90;;;;;;4880226;29;20271;-89
2022/01/07 05:29:28;;;;;;;12.20;7.30;;;1.60;99.90;;;;;;4901551;29;20279;-89
2022/01/07 05:32:19;;;;;;;12.43;6.90;;;1.20;99.90;;;;;;4885345;29;20235;-88
2022/01/07 05:35:06;;;;;;;11.32;6.55;;;1.60;99.90;;;;;;4895946;29;20226;-90
2022/01/07 05:38:14;;;;;;;14.07;6.63;;;1.30;99.90;;;;;;4907567;29;20266;-89
2022/01/07 06:00:03;;;;;;;13.70;6.95;;;1.70;99.90;;;;;;4921242;29;20594;-90
2022/01/07 06:10:07;;;;;;;14.82;8.57;;;1.80;99.90;;;;;;4906230;29;20207;-90
2022/01/07 06:12:39;;;;;;;17.80;7.75;;;1.90;99.90;;;;;;4912368;23;20280;-88
2022/01/07 06:15:07;;;;;;;12.98;7.28;;;2.00;99.90;;;;;;4997670;28;20192;-88
2022/01/07 06:17:34;;;;;;;11.93;7.13;;;2.10;99.90;;;;;;5004167;28;20208;-88
2022/01/07 06:20:01;;;;;;;13.00;7.88;;;2.20;99.90;;;;;;5010117;28;20560;-88
2022/01/07 06:22:27;;;;;;;17.48;8.98;;;1.90;99.90;;;;;;4997550;28;20231;-88
2022/01/07 06:24:54;;;;;;;20.50;9.35;;;2.00;99.90;;;;;;4997163;28;20211;-88
2022/01/07 06:27:21;;;;;;;17.23;7.90;;;1.90;99.90;;;;;;4995634;28;20235;-88
2022/01/07 06:29:52;;;;;;;15.02;7.55;;;2.10;99.90;;;;;;4996043;28;20212;-88
2022/01/07 06:32:19;;;;;;;14.57;8.23;;;1.80;99.90;;;;;;4996616;28;20310;-87
2022/01/07 06:34:46;;;;;;;18.80;8.05;;;2.10;99.90;;;;;;4995942;28;20223;-88
2022/01/07 06:37:13;;;;;;;16.88;8.43;;;2.00;99.90;;;;;;4995907;28;20231;-88
2022/01/07 06:39:40;;;;;;;11.57;8.35;;;1.90;99.90;;;;;;4996079;28;20239;-88
2022/01/07 06:42:07;;;;;;;13.95;8.65;;;2.10;99.90;;;;;;5001579;28;20247;-87
2022/01/07 06:44:35;;;;;;;14.23;8.48;;;2.10;99.90;;;;;;5002576;28;20239;-88
2022/01/07 06:47:04;;;;;;;13.75;7.20;;;1.70;99.90;;;;;;4997141;28;20221;-88
2022/01/07 06:49:31;;;;;;;14.45;7.20;;;2.20;99.90;;;;;;4997200;28;20227;-88
2022/01/07 06:51:59;;;;;;;13.48;8.30;;;2.10;99.90;;;;;;4997799;28;20566;-88
2022/01/07 06:54:27;;;;;;;14.90;7.88;;;2.20;99.90;;;;;;5006345;28;20192;-85
2022/01/07 06:56:54;;;;;;;13.23;7.60;;;2.10;99.90;;;;;;5007340;28;20242;-87
2022/01/07 06:59:21;;;;;;;12.32;7.30;;;2.10;99.90;;;;;;4996139;28;20216;-88
2022/01/07 07:01:48;;;;;;;17.55;7.68;;;2.10;99.90;;;;;;4996566;28;20227;-87
2022/01/07 07:04:17;;;;;;;13.80;7.57;;;2.30;99.90;;;;;;5002406;28;20231;-88
2022/01/07 07:06:45;;;;;;;14.98;7.30;;;2.40;99.90;;;;;;5011345;28;20215;-88
2022/01/07 07:09:12;;;;;;;14.82;7.97;;;2.00;99.90;;;;;;4997282;28;20618;-88
2022/01/07 07:11:39;;;;;;;15.85;8.80;;;2.20;99.90;;;;;;4997184;28;20252;-88
2022/01/07 07:14:07;;;;;;;14.00;8.48;;;2.10;99.90;;;;;;4995897;28;20220;-88
2022/01/07 07:16:34;;;;;;;15.63;8.48;;;2.20;99.90;;;;;;5000919;28;20211;-87
2022/01/07 07:19:00;;;;;;;14.30;8.32;;;2.00;99.90;;;;;;4999948;28;20243;-88
2022/01/07 07:21:29;;;;;;;13.80;7.90;;;2.20;99.90;;;;;;4995798;28;20291;-88
2022/01/07 07:23:55;;;;;;;12.10;7.28;;;2.20;99.90;;;;;;4995398;28;20234;-88
2022/01/07 07:26:22;;;;;;;12.88;7.65;;;2.30;99.90;;;;;;4996830;28;20243;-88
2022/01/07 07:28:49;;;;;;;10.32;6.43;;;2.10;99.90;;;;;;4996813;28;20268;-88
2022/01/07 07:31:18;;;;;;;10.90;7.20;;;2.10;99.90;;;;;;4997237;28;20204;-88
2022/01/07 07:34:18;;;;;;;12.27;6.88;;;2.40;99.90;;;;;;4996944;28;20236;-88
2022/01/07 07:36:47;;;;;;;12.95;7.72;;;1.80;99.90;;;;;;4995991;28;20212;-88
2022/01/07 07:39:15;;;;;;;14.65;8.60;;;2.30;99.90;;;;;;4996231;28;20279;-88
2022/01/07 07:41:43;;;;;;;12.88;7.70;;;1.80;99.90;;;;;;4997672;28;20651;-88
2022/01/07 07:44:10;;;;;;;10.80;6.55;;;2.20;99.90;;;;;;4996365;28;20240;-88
2022/01/07 07:46:40;;;;;;;11.63;7.90;;;2.20;99.90;;;;;;4995406;28;20204;-88
2022/01/07 07:49:08;;;;;;;13.02;7.15;;;2.20;99.90;;;;;;4996423;28;20223;-88
2022/01/07 07:51:36;;;;;;;12.10;7.82;;;2.30;99.90;;;;;;4996030;28;20300;-89
2022/01/07 07:54:04;;;;;;;12.70;7.93;;;2.30;99.90;;;;;;4996243;28;20689;-88
2022/01/07 07:56:31;;;;;;;15.75;8.85;;;2.30;99.90;;;;;;4995411;28;20715;-86
2022/01/07 07:58:58;;;;;;;14.80;8.00;;;2.20;99.90;;;;;;4997058;28;20222;-88
2022/01/07 08:01:26;;;;;;;13.88;8.23;;;2.20;99.90;;;;;;4997886;28;20239;-88
2022/01/07 08:03:53;;;;;;;13.57;8.10;;;2.30;99.90;;;;;;4999515;28;20233;-88
2022/01/07 08:06:20;;;;;;;13.85;7.55;;;2.60;99.90;;;;;;4999200;28;20287;-87
2022/01/07 08:08:47;;;;;;;13.25;7.00;;;2.40;99.90;;;;;;4998192;28;20208;-88
2022/01/07 08:11:16;;;;;;;12.88;6.88;;;1.90;99.90;;;;;;5000251;28;20622;-88
2022/01/07 08:16:28;;;;;;;11.90;7.20;;;2.60;99.90;;;;;;4996565;28;20235;-88
2022/01/07 08:18:57;;;;;;;15.50;8.23;;;2.60;99.90;;;;;;5009558;28;20195;-88
2022/01/07 08:21:26;;;;;;;20.08;8.75;;;2.50;99.90;;;;;;5015816;28;20212;-87
2022/01/07 08:23:54;;;;;;;14.07;8.80;;;2.60;99.90;;;;;;5014925;28;20248;-88
2022/01/07 08:26:24;;;;;;;11.57;7.60;;;2.70;99.90;;;;;;5014813;28;20194;-87
2022/01/07 08:28:54;;;;;;;11.60;7.57;;;2.60;99.90;;;;;;5015579;28;20259;-87
2022/01/07 08:34:53;;;;;;;11.77;7.10;;;2.90;99.90;;;;;;5008882;28;20549;-87
2022/01/07 08:36:57;;;;;;;12.85;6.80;;;2.90;99.90;;;;;;5000083;28;20215;-87
2022/01/07 08:39:25;;;;;;;15.02;8.70;;;2.90;99.90;;;;;;5013728;28;20230;-87
2022/01/07 08:41:53;;;;;;;11.00;7.10;;;2.90;99.90;;;;;;5009443;28;20609;-87
2022/01/07 08:44:22;;;;;;;13.90;7.97;;;3.10;99.90;;;;;;5000001;28;20208;-87
2022/01/07 08:46:49;;;;;;;14.02;7.70;;;3.20;99.90;;;;;;4999755;28;20300;-87
2022/01/07 08:49:16;;;;;;;15.68;8.10;;;2.80;99.90;;;;;;5000585;28;20210;-87
2022/01/07 08:51:44;;;;;;;11.38;7.03;;;2.50;99.90;;;;;;4999186;28;20336;-87
2022/01/07 08:54:13;;;;;;;12.88;7.40;;;3.00;99.90;;;;;;5002510;28;20584;-88
2022/01/07 08:56:40;;;;;;;13.05;7.25;;;3.20;99.90;;;;;;5002084;28;20280;-88
2022/01/07 08:59:08;;;;;;;13.88;8.57;;;2.60;99.90;;;;;;5008400;28;20206;-88
2022/01/07 09:01:35;;;;;;;14.70;7.72;;;2.90;99.90;;;;;;4999545;28;20241;-88
2022/01/07 09:04:02;;;;;;;13.43;7.32;;;3.10;99.90;;;;;;4998867;28;20244;-88
2022/01/07 09:06:29;;;;;;;13.30;6.70;;;3.10;99.90;;;;;;4998657;28;20611;-88
2022/01/07 09:08:56;;;;;;;11.20;6.78;;;3.30;99.90;;;;;;5000546;28;20638;-87
2022/01/07 09:11:23;;;;;;;12.38;6.72;;;3.30;99.90;;;;;;4999456;28;20208;-87
2022/01/07 09:13:52;;;;;;;11.90;5.95;;;3.20;99.90;;;;;;4999299;28;20305;-88
2022/01/07 09:16:23;;;;;;;11.93;6.30;;;3.00;99.90;;;;;;5003834;28;20231;-88
2022/01/07 09:18:50;;;;;;;11.48;6.60;;;3.20;99.90;;;;;;4998503;28;20189;-88
2022/01/07 09:21:17;;;;;;;10.73;6.60;;;3.20;99.90;;;;;;4999292;28;20238;-88
2022/01/07 09:23:43;;;;;;;11.40;7.45;;;3.20;99.90;;;;;;4997345;28;20237;-88
2022/01/07 09:26:12;;;;;;;12.15;6.30;;;3.30;99.90;;;;;;4997401;28;20209;-88
2022/01/07 09:28:39;;;;;;;13.75;6.60;;;3.20;99.90;;;;;;4998393;28;20352;-90
2022/01/07 09:31:06;;;;;;;10.00;6.55;;;3.40;99.90;;;;;;4997614;28;20208;-87
2022/01/07 09:33:34;;;;;;;12.27;6.88;;;3.20;99.90;;;;;;4997643;28;20225;-89
2022/01/07 09:36:01;;;;;;;10.00;5.88;;;3.50;99.90;;;;;;4998152;28;20315;-88
2022/01/07 09:38:28;;;;;;;9.43;6.10;;;3.60;99.90;;;;;;4998380;28;20205;-88
2022/01/07 09:40:55;;;;;;;10.70;6.22;;;3.60;99.90;;;;;;4998132;28;20197;-88
2022/01/07 09:43:22;;;;;;;11.52;6.13;;;3.10;99.90;;;;;;4998561;28;20668;-88
2022/01/07 09:45:50;;;;;;;11.82;5.97;;;3.40;99.90;;;;;;4997865;28;20290;-88
2022/01/07 09:48:17;;;;;;;14.63;6.38;;;3.40;99.90;;;;;;5011048;28;20215;-87
2022/01/07 09:50:46;;;;;;;10.13;6.22;;;3.40;99.90;;;;;;5007954;28;20234;-88
2022/01/07 09:53:15;;;;;;;10.35;6.18;;;3.00;99.90;;;;;;5001364;28;20228;-87
2022/01/07 09:55:43;;;;;;;11.55;5.97;;;3.60;99.90;;;;;;4997498;28;20210;-87
2022/01/07 09:58:13;;;;;;;12.13;6.18;;;3.70;99.90;;;;;;4998422;28;20255;-89
2022/01/07 10:00:42;;;;;;;13.13;6.10;;;3.70;99.90;;;;;;5014070;28;20213;-87
2022/01/07 10:03:10;;;;;;;11.10;6.78;;;3.50;99.90;;;;;;5004553;28;20336;-89
2022/01/07 10:05:42;;;;;;;9.40;5.60;;;3.60;99.90;;;;;;4997804;28;20243;-87
2022/01/07 10:08:23;;;;;;;13.50;5.57;;;3.70;99.90;;;;;;4998414;28;20284;-88
2022/01/07 10:11:11;;;;;;;10.65;5.35;;;3.80;99.90;;;;;;4998575;28;20281;-88
2022/01/07 10:13:38;;;;;;;13.15;6.40;;;3.60;99.90;;;;;;5013766;28;20243;-89
2022/01/07 10:16:15;;;;;;;8.90;5.72;;;3.60;99.90;;;;;;4998370;28;20323;-88
2022/01/07 10:18:42;;;;;;;9.80;5.68;;;3.30;99.90;;;;;;4997841;28;20211;-88
2022/01/07 10:21:10;;;;;;;9.95;6.13;;;3.60;99.90;;;;;;4998068;28;20222;-88
2022/01/07 10:23:39;;;;;;;8.48;5.70;;;3.70;99.90;;;;;;5014048;28;20620;-88
2022/01/07 10:26:13;;;;;;;9.68;5.28;;;3.60;99.90;;;;;;5014069;28;20271;-87
2022/01/07 10:28:42;;;;;;;11.50;6.10;;;3.20;99.90;;;;;;5003449;28;20282;-88
2022/01/07 10:31:20;;;;;;;12.32;6.68;;;3.50;99.90;;;;;;5002045;28;20283;-88
2022/01/07 10:33:49;;;;;;;11.25;5.80;;;3.70;99.90;;;;;;4997150;28;20266;-88
2022/01/07 10:36:18;;;;;;;10.90;6.25;;;3.20;99.90;;;;;;4996102;28;20210;-87
2022/01/07 10:38:52;;;;;;;11.02;6.65;;;3.60;99.90;;;;;;4998096;28;20595;-87
2022/01/07 10:41:20;;;;;;;13.38;6.85;;;3.50;99.90;;;;;;4997341;28;20225;-87
2022/01/07 10:43:48;;;;;;;11.98;6.85;;;3.60;99.90;;;;;;4997505;28;20233;-88
2022/01/07 10:46:19;;;;;;;11.60;7.20;;;3.10;99.90;;;;;;4997461;28;20200;-88
2022/01/07 10:48:50;;;;;;;16.20;7.25;;;3.10;99.90;;;;;;4997004;28;20536;-89
2022/01/07 10:51:19;;;;;;;13.73;6.63;;;3.50;99.90;;;;;;4996869;28;20217;-88
2022/01/07 10:53:51;;;;;;;11.27;7.22;;;3.60;99.90;;;;;;4997686;28;20242;-88
2022/01/07 10:56:20;;;;;;;10.13;6.75;;;3.70;99.90;;;;;;4998922;28;20196;-88
2022/01/07 10:59:05;;;;;;;12.25;7.65;;;3.70;99.90;;;;;;4997875;28;20209;-88
2022/01/07 11:01:44;;;;;;;12.85;7.25;;;3.40;99.90;;;;;;4998037;28;20284;-88
2022/01/07 11:04:14;;;;;;;13.57;7.70;;;3.40;99.90;;;;;;4997175;28;20300;-89
2022/01/07 11:06:42;;;;;;;14.55;7.82;;;3.10;99.90;;;;;;4998209;28;20230;-88
2022/01/07 11:09:13;;;;;;;11.65;7.13;;;3.30;99.90;;;;;;5010805;28;20206;-87
2022/01/07 11:11:50;;;;;;;15.38;7.35;;;3.50;99.90;;;;;;5013566;28;20194;-87
2022/01/07 11:14:20;;;;;;;12.52;7.03;;;3.50;99.90;;;;;;5012563;28;20228;-89
2022/01/07 11:16:46;;;;;;;12.23;8.15;;;3.40;99.90;;;;;;5009086;28;20220;-87
2022/01/07 11:19:19;;;;;;;22.75;7.85;;;3.40;99.90;;;;;;5009273;28;20210;-88
2022/01/07 11:21:52;;;;;;;12.93;7.60;;;3.50;99.90;;;;;;5009116;28;20198;-88
2022/01/07 11:24:42;;;;;;;13.80;6.60;;;2.90;99.90;;;;;;5007747;28;20221;-88
2022/01/07 11:27:16;;;;;;;16.25;6.75;;;3.00;99.90;;;;;;4997267;28;20264;-86
2022/01/07 11:30:03;;;;;;;14.82;7.45;;;3.50;99.90;;;;;;4996656;28;20301;-87
2022/01/07 11:32:33;;;;;;;16.55;9.57;;;3.70;99.90;;;;;;4997397;28;20734;-87
2022/01/07 11:35:47;;;;;;;11.88;7.35;;;3.80;99.90;;;;;;4998631;28;20594;-88
2022/01/07 11:38:34;;;;;;;13.68;8.68;;;3.60;99.90;;;;;;4999783;28;20240;-88
2022/01/07 11:41:09;;;;;;;12.20;7.55;;;3.70;99.90;;;;;;5000987;28;20354;-88
2022/01/07 11:43:40;;;;;;;13.30;7.50;;;3.30;99.90;;;;;;4998261;28;20252;-88
2022/01/07 11:46:27;;;;;;;15.40;7.53;;;3.70;99.90;;;;;;5000880;28;20292;-88
2022/01/07 11:48:56;;;;;;;13.25;7.20;;;3.80;99.90;;;;;;5015507;28;20194;-88
2022/01/07 11:51:24;;;;;;;11.73;7.57;;;3.90;99.90;;;;;;5008658;28;20217;-86
2022/01/07 11:54:13;;;;;;;10.23;6.35;;;3.50;99.90;;;;;;5014229;28;20284;-87
2022/01/07 11:56:43;;;;;;;13.05;7.43;;;4.00;99.90;;;;;;5004872;28;20225;-88
2022/01/07 11:59:25;;;;;;;14.07;7.13;;;4.10;99.90;;;;;;5015550;28;20189;-87
2022/01/07 12:02:05;;;;;;;13.07;7.05;;;3.70;99.90;;;;;;5013183;28;20190;-87
2022/01/07 12:04:34;;;;;;;10.65;6.70;;;3.80;99.90;;;;;;5014106;28;20284;-87
2022/01/07 12:07:05;;;;;;;10.32;6.22;;;4.20;99.90;;;;;;5012282;28;20208;-88
2022/01/07 12:09:35;;;;;;;10.75;6.75;;;4.20;99.90;;;;;;5013982;28;20197;-88
2022/01/07 12:12:05;;;;;;;12.00;6.72;;;4.30;99.90;;;;;;5016326;28;20256;-87
2022/01/07 12:14:38;;;;;;;10.60;6.75;;;4.30;99.90;;;;;;5016073;23;20280;-88
2022/01/07 12:17:06;;;;;;;13.30;6.85;;;4.40;99.90;;;;;;4987703;28;20237;-90
2022/01/07 12:20:17;;;;;;;10.52;6.40;;;4.10;99.90;;;;;;4986661;28;20214;-89
2022/01/07 12:22:52;;;;;;;9.20;5.90;;;4.20;99.90;;;;;;4986744;28;20226;-88
2022/01/07 12:25:19;;;;;;;16.95;7.32;;;4.60;99.90;;;;;;4988063;28;20271;-88
2022/01/07 12:27:47;;;;;;;11.75;6.75;;;4.60;99.90;;;;;;4987744;28;20245;-89
2022/01/07 12:30:16;;;;;;;9.98;6.13;;;4.00;99.90;;;;;;4990909;28;20209;-89
2022/01/07 12:32:44;;;;;;;11.20;6.45;;;4.40;99.90;;;;;;4999132;28;20528;-89
2022/01/07 12:35:13;;;;;;;9.30;5.88;;;4.60;99.90;;;;;;4995855;28;20206;-88
2022/01/07 12:37:42;;;;;;;11.40;6.20;;;4.20;99.90;;;;;;4993076;28;20651;-88
2022/01/07 12:40:11;;;;;;;14.57;6.75;;;4.00;99.90;;;;;;5000625;28;20261;-88
2022/01/07 12:42:41;;;;;;;10.23;6.13;;;4.40;99.90;;;;;;4999908;28;20209;-88
2022/01/07 12:45:15;;;;;;;14.18;7.63;;;4.00;99.90;;;;;;4992996;28;20301;-88
2022/01/07 12:47:42;;;;;;;9.68;5.65;;;4.60;99.90;;;;;;4984725;28;20730;-88
2022/01/07 12:50:11;;;;;;;9.40;6.03;;;4.60;99.90;;;;;;4987275;28;20661;-89
2022/01/07 12:52:41;;;;;;;8.70;5.50;;;4.80;99.90;;;;;;4985738;28;20251;-87
2022/01/07 12:55:12;;;;;;;10.45;6.35;;;4.90;99.90;;;;;;4984528;28;20210;-90
2022/01/07 12:57:44;;;;;;;8.50;4.72;;;4.90;99.90;;;;;;4987217;28;20282;-90
2022/01/07 13:00:16;;;;;;;7.80;5.20;;;4.90;99.90;;;;;;4984990;28;20202;-88
2022/01/07 13:02:45;;;;;;;9.35;5.15;;;5.00;99.90;;;;;;4988036;28;20295;-89
2022/01/07 13:05:19;;;;;;;9.15;4.95;;;5.00;99.90;;;;;;4999734;28;20225;-88
2022/01/07 13:07:47;;;;;;;11.48;4.88;;;5.00;99.90;;;;;;4991536;28;20214;-88
2022/01/07 13:10:20;;;;;;;9.55;5.50;;;4.80;99.90;;;;;;4996060;28;20332;-88
2022/01/07 13:12:57;;;;;;;9.93;5.18;;;4.90;99.90;;;;;;4984118;28;20237;-88
2022/01/07 13:15:50;;;;;;;7.28;4.80;;;5.00;99.90;;;;;;4985028;28;20204;-89
2022/01/07 13:18:28;;;;;;;8.27;4.70;;;5.00;99.90;;;;;;4985382;28;20643;-88
2022/01/07 13:20:58;;;;;;;8.32;5.25;;;4.80;99.90;;;;;;4984224;28;20241;-88
2022/01/07 13:23:27;;;;;;;7.30;4.45;;;5.00;99.90;;;;;;4993471;28;20265;-87
2022/01/07 13:25:55;;;;;;;8.10;4.75;;;4.70;99.90;;;;;;4998793;28;20262;-88
2022/01/07 13:28:37;;;;;;;10.45;4.20;;;4.70;99.90;;;;;;4991698;28;20206;-87
2022/01/07 13:31:07;;;;;;;12.82;4.53;;;4.70;99.90;;;;;;4989485;28;20611;-88
2022/01/07 13:36:15;;;;;;;8.07;4.25;;;5.10;99.90;;;;;;3091304;26;20671;-88
2022/01/07 13:38:43;;;;;;;13.30;5.30;;;4.90;99.90;;;;;;4947205;29;20197;-89
2022/01/07 13:41:11;;;;;;;6.93;4.30;;;5.00;99.90;;;;;;4945056;29;20210;-89
2022/01/07 13:43:40;;;;;;;10.20;4.13;;;5.00;99.90;;;;;;4944974;29;20314;-88
2022/01/07 13:46:11;;;;;;;8.77;4.20;;;4.70;99.90;;;;;;4945792;29;20680;-88
2022/01/07 13:48:49;;;;;;;7.25;4.50;;;4.80;99.90;;;;;;4946124;29;20603;-88
2022/01/07 13:51:20;;;;;;;5.72;3.80;;;4.80;99.90;;;;;;4945350;29;20193;-87
2022/01/07 13:54:11;;;;;;;6.45;3.85;;;5.10;99.90;;;;;;4948469;29;20676;-88
2022/01/07 13:56:41;;;;;;;8.68;3.78;;;4.60;99.90;;;;;;4958898;29;20191;-88
2022/01/07 13:59:10;;;;;;;10.63;5.95;;;4.70;99.90;;;;;;4944309;29;20202;-88
2022/01/07 14:01:54;;;;;;;8.98;4.95;;;4.80;99.90;;;;;;4945861;29;20218;-89
2022/01/07 14:04:22;;;;;;;6.43;3.97;;;5.20;99.90;;;;;;4945316;29;20260;-89
2022/01/07 14:06:49;;;;;;;7.72;4.40;;;5.30;99.90;;;;;;4950291;29;20219;-88
2022/01/07 14:09:18;;;;;;;7.43;4.05;;;5.00;99.90;;;;;;4952425;29;20208;-88
2022/01/07 14:12:03;;;;;;;8.18;4.57;;;5.30;99.90;;;;;;4951592;29;20212;-89
2022/01/07 14:14:37;;;;;;;7.20;3.72;;;5.30;99.90;;;;;;4948719;29;20227;-89
2022/01/07 14:17:11;;;;;;;6.22;3.60;;;5.00;99.90;;;;;;4947842;29;20287;-88
2022/01/07 14:19:55;;;;;;;9.30;4.95;;;5.10;99.90;;;;;;4944167;29;20238;-88
2022/01/07 14:22:22;;;;;;;12.02;4.38;;;5.40;99.90;;;;;;4943275;29;20204;-89
2022/01/07 14:24:49;;;;;;;5.50;3.50;;;5.40;99.90;;;;;;4947387;29;20224;-89
2022/01/07 14:27:28;;;;;;;7.70;4.07;;;5.00;99.90;;;;;;4944629;29;20249;-90
2022/01/07 14:29:56;;;;;;;8.85;4.10;;;4.90;99.90;;;;;;4946922;29;20200;-89
2022/01/07 14:32:25;;;;;;;7.25;4.25;;;4.90;99.90;;;;;;4945544;29;20221;-88
2022/01/07 14:34:55;;;;;;;7.75;3.95;;;5.20;99.90;;;;;;4943119;29;20584;-88
2022/01/07 14:37:23;;;;;;;7.20;3.40;;;5.20;99.90;;;;;;4944698;29;20294;-88
2022/01/07 14:39:50;;;;;;;8.10;3.80;;;5.10;99.90;;;;;;4944163;29;20212;-89
2022/01/07 14:42:17;;;;;;;5.45;3.25;;;5.20;99.90;;;;;;4944029;29;20200;-88
2022/01/07 14:44:44;;;;;;;8.80;3.50;;;5.30;99.90;;;;;;4944185;29;20238;-88
2022/01/07 14:47:11;;;;;;;6.65;3.30;;;5.10;99.90;;;;;;4944356;29;20283;-90
2022/01/07 14:49:40;;;;;;;8.52;3.65;;;4.70;99.90;;;;;;4944443;29;20208;-89
2022/01/07 14:52:07;;;;;;;6.55;3.20;;;4.80;99.90;;;;;;4943168;29;20682;-89
2022/01/07 14:54:38;;;;;;;7.40;3.85;;;4.70;99.90;;;;;;4944881;29;20227;-89
2022/01/07 14:57:05;;;;;;;7.78;4.18;;;4.70;99.90;;;;;;4945796;29;20239;-88
2022/01/07 14:59:32;;;;;;;6.60;3.65;;;5.00;99.90;;;;;;4951023;29;20283;-88
2022/01/07 15:01:59;;;;;;;7.60;3.60;;;5.20;99.90;;;;;;4944214;29;20294;-89
2022/01/07 15:04:26;;;;;;;6.55;3.22;;;4.80;99.90;;;;;;4943762;29;20228;-89
2022/01/07 15:06:55;;;;;;;7.93;4.10;;;4.70;99.90;;;;;;4943060;29;20243;-89
2022/01/07 15:09:22;;;;;;;5.85;3.17;;;4.80;99.90;;;;;;4951669;29;20208;-90
2022/01/07 15:11:49;;;;;;;7.47;3.55;;;4.60;99.90;;;;;;4958552;29;20200;-88
2022/01/07 15:14:17;;;;;;;7.85;4.00;;;5.00;99.90;;;;;;4952162;29;20238;-88
2022/01/07 15:16:47;;;;;;;7.15;3.63;;;4.80;99.90;;;;;;4953992;29;20256;-88
2022/01/07 15:19:15;;;;;;;9.35;4.47;;;5.00;99.90;;;;;;4948963;29;20248;-88
2022/01/07 15:21:42;;;;;;;7.63;3.90;;;5.00;99.90;;;;;;4953338;29;20208;-89
2022/01/07 15:24:12;;;;;;;7.20;4.20;;;4.90;99.90;;;;;;4945030;29;20228;-89
2022/01/07 15:26:41;;;;;;;6.60;3.97;;;4.70;99.90;;;;;;4949194;29;20243;-88
2022/01/07 15:29:09;;;;;;;7.78;4.18;;;5.10;99.90;;;;;;4946816;29;20211;-88
2022/01/07 15:31:37;;;;;;;5.03;3.20;;;5.00;99.90;;;;;;4956780;29;20203;-89
2022/01/07 15:34:09;;;;;;;9.90;4.10;;;4.80;99.90;;;;;;4958954;29;20247;-89
2022/01/07 15:36:38;;;;;;;8.88;4.20;;;5.10;99.90;;;;;;4951590;29;20223;-89
2022/01/07 15:39:08;;;;;;;6.35;3.63;;;4.80;99.90;;;;;;4957135;29;20251;-89
2022/01/07 15:41:37;;;;;;;5.75;2.95;;;5.00;99.90;;;;;;4958748;29;20196;-89
2022/01/07 15:44:07;;;;;;;6.65;4.13;;;5.10;99.90;;;;;;4959528;29;20234;-88
2022/01/07 15:46:36;;;;;;;6.78;3.58;;;5.10;99.90;;;;;;4962695;29;20218;-88
2022/01/07 15:49:06;;;;;;;6.47;3.95;;;4.70;99.90;;;;;;4953790;29;20213;-88
2022/01/07 15:51:33;;;;;;;6.55;3.30;;;5.00;99.90;;;;;;4950297;29;20210;-89
2022/01/07 15:54:00;;;;;;;6.38;2.78;;;5.20;99.90;;;;;;4956913;29;20648;-88
2022/01/07 15:56:28;;;;;;;5.38;2.92;;;4.80;99.90;;;;;;4960188;29;20226;-89
2022/01/07 15:58:56;;;;;;;7.25;2.97;;;5.00;99.90;;;;;;4956983;29;20537;-89
2022/01/07 16:01:25;;;;;;;5.93;2.78;;;4.70;99.90;;;;;;4952621;29;20216;-89
2022/01/07 16:03:53;;;;;;;7.63;2.60;;;4.60;99.90;;;;;;4952557;29;20246;-88
2022/01/07 16:06:21;;;;;;;6.20;3.53;;;5.00;99.90;;;;;;4951549;29;20262;-89
2022/01/07 16:08:48;;;;;;;5.10;2.75;;;5.10;99.90;;;;;;4947852;29;20219;-88
2022/01/07 16:11:15;;;;;;;7.57;2.95;;;4.60;99.90;;;;;;4947593;29;20227;-89
2022/01/07 16:13:42;;;;;;;4.63;2.83;;;4.70;99.90;;;;;;4948225;29;20226;-89
2022/01/07 16:16:14;;;;;;;9.80;3.42;;;5.10;99.90;;;;;;4955957;29;20208;-88
2022/01/07 16:18:41;;;;;;;5.05;3.03;;;5.10;99.90;;;;;;4956350;29;20221;-88
2022/01/07 16:21:12;;;;;;;5.15;3.05;;;5.00;99.90;;;;;;4958656;29;20227;-88
2022/01/07 16:23:39;;;;;;;7.10;2.78;;;4.80;99.90;;;;;;4953066;29;20315;-90
2022/01/07 16:26:09;;;;;;;5.13;2.40;;;5.00;99.90;;;;;;4950648;29;20292;-89
2022/01/07 16:28:37;;;;;;;5.68;2.60;;;5.00;99.90;;;;;;4951714;29;20223;-89
2022/01/07 16:31:05;;;;;;;5.45;2.22;;;5.10;99.90;;;;;;4954308;29;20219;-88
2022/01/07 16:33:33;;;;;;;5.78;2.70;;;5.00;99.90;;;;;;4953572;29;20224;-89
2022/01/07 16:36:01;;;;;;;6.72;3.53;;;5.10;99.90;;;;;;4950051;29;20232;-88
2022/01/07 16:38:28;;;;;;;4.80;2.80;;;4.70;99.90;;;;;;4950525;29;20225;-88
2022/01/07 16:40:57;;;;;;;4.22;2.50;;;4.80;99.90;;;;;;4955068;29;20386;-89
2022/01/07 16:43:25;;;;;;;4.65;2.50;;;4.70;99.90;;;;;;4957892;29;20297;-88
2022/01/07 16:45:52;;;;;;;5.28;2.50;;;5.10;99.90;;;;;;4945647;29;20234;-88
2022/01/07 16:48:22;;;;;;;4.53;2.45;;;5.00;99.90;;;;;;4947135;29;20208;-88
2022/01/07 16:50:50;;;;;;;6.90;2.25;;;4.70;99.90;;;;;;4946711;29;20228;-88
2022/01/07 16:53:17;;;;;;;4.30;2.58;;;4.80;99.90;;;;;;4947827;29;20259;-89
2022/01/07 16:55:44;;;;;;;6.05;3.03;;;5.10;99.90;;;;;;4950072;29;20600;-90
2022/01/07 16:58:14;;;;;;;5.40;2.72;;;4.80;99.90;;;;;;4947537;29;20246;-89
2022/01/07 17:00:41;;;;;;;6.57;3.30;;;4.90;99.90;;;;;;4945632;29;20587;-88
2022/01/07 17:03:08;;;;;;;5.65;3.33;;;5.20;99.90;;;;;;4945468;29;20228;-89
2022/01/07 17:05:38;;;;;;;8.98;3.83;;;4.70;99.90;;;;;;4946735;29;20327;-89
2022/01/07 17:08:07;;;;;;;5.18;2.85;;;5.20;99.90;;;;;;4945199;29;20214;-88
2022/01/07 17:10:39;;;;;;;9.90;3.47;;;5.30;99.90;;;;;;4948146;29;20590;-87
2022/01/07 17:13:06;;;;;;;5.43;2.33;;;5.20;99.90;;;;;;4949459;29;20317;-89
2022/01/07 17:15:33;;;;;;;4.82;2.30;;;4.70;99.90;;;;;;4957658;29;20203;-87
2022/01/07 17:18:00;;;;;;;5.72;3.33;;;4.70;99.90;;;;;;4955518;29;20241;-89
2022/01/07 17:20:27;;;;;;;6.38;3.00;;;5.10;99.90;;;;;;4957147;29;20278;-90
2022/01/07 17:22:55;;;;;;;7.45;3.40;;;5.10;99.90;;;;;;4952357;29;20259;-89
2022/01/07 17:25:23;;;;;;;20.63;8.75;;;4.80;99.90;;;;;;4950357;29;20231;-88
2022/01/07 17:27:50;;;;;;;8.70;3.80;;;5.30;99.90;;;;;;4949978;29;20244;-88
2022/01/07 17:30:18;;;;;;;6.75;3.35;;;5.10;99.90;;;;;;4957740;29;20210;-89
2022/01/07 17:32:45;;;;;;;6.15;3.22;;;5.30;99.90;;;;;;4948047;29;20238;-90
2022/01/07 17:35:14;;;;;;;6.90;3.00;;;5.00;99.90;;;;;;4945814;29;20225;-89
2022/01/07 17:37:42;;;;;;;9.55;5.28;;;4.90;99.90;;;;;;4947754;29;20212;-88
2022/01/07 17:40:09;;;;;;;6.72;3.83;;;5.20;99.90;;;;;;4945906;29;20212;-89
2022/01/07 17:42:38;;;;;;;6.53;3.47;;;5.20;99.90;;;;;;4946414;29;20375;-88
2022/01/07 17:45:18;;;;;;;6.80;3.90;;;5.20;99.90;;;;;;4950834;29;20227;-88
2022/01/07 17:47:45;;;;;;;6.63;3.72;;;5.20;99.90;;;;;;4949247;29;20566;-88